createdAt,value
2023-01-20T00:01:22.249Z,81.49
2023-01-20T00:03:49.191Z,81.61
2023-01-20T00:06:15.700Z,81.55
2023-01-20T00:08:42.383Z,81.10
2023-01-20T00:11:12.559Z,81.02
2023-01-20T00:13:39.588Z,81.25
2023-01-20T00:16:08.044Z,81.09
2023-01-20T00:18:35.176Z,80.96
2023-01-20T00:21:03.468Z,80.98
2023-01-20T00:23:30.028Z,81.32
2023-01-20T00:25:56.551Z,81.24
2023-01-20T00:28:23.194Z,81.31
2023-01-20T00:30:49.777Z,81.37
2023-01-20T00:33:16.317Z,81.56
2023-01-20T00:35:42.939Z,81.27
2023-01-20T00:38:09.721Z,80.97
2023-01-20T00:40:36.272Z,81.39
2023-01-20T00:43:02.916Z,81.20
2023-01-20T00:45:29.417Z,80.79
2023-01-20T00:47:55.924Z,81.20
2023-01-20T00:50:22.557Z,81.01
2023-01-20T00:52:49.101Z,81.17
2023-01-20T00:55:16.038Z,81.14
2023-01-20T00:57:42.644Z,81.17
2023-01-20T01:00:09.702Z,81.19
2023-01-20T01:02:40.130Z,81.08
2023-01-20T01:05:06.949Z,80.77
2023-01-20T01:07:33.445Z,81.29
2023-01-20T01:09:59.961Z,81.02
2023-01-20T01:12:26.757Z,81.22
2023-01-20T01:14:53.308Z,80.87
2023-01-20T01:17:19.823Z,81.17
2023-01-20T01:19:46.379Z,80.98
2023-01-20T01:22:12.966Z,80.78
2023-01-20T01:24:39.553Z,80.74
2023-01-20T01:27:06.156Z,80.60
2023-01-20T01:29:32.844Z,80.48
2023-01-20T01:31:59.407Z,80.72
2023-01-20T01:34:26.504Z,80.46
2023-01-20T01:36:53.154Z,80.58
2023-01-20T01:39:19.701Z,80.40
2023-01-20T01:41:46.213Z,80.29
2023-01-20T01:44:14.047Z,80.50
2023-01-20T01:46:41.594Z,80.28
2023-01-20T01:49:21.351Z,80.27
2023-01-20T01:52:09.221Z,80.03
2023-01-20T01:54:42.898Z,80.28
2023-01-20T01:57:09.757Z,79.96
2023-01-20T01:59:37.520Z,79.99
2023-01-20T02:02:04.272Z,79.96
2023-01-20T02:04:33.578Z,80.02
2023-01-20T02:07:07.915Z,80.06
2023-01-20T02:09:34.783Z,80.23
2023-01-20T02:12:04.480Z,80.24
2023-01-20T02:14:34.522Z,80.43
2023-01-20T02:17:32.479Z,80.29
2023-01-20T02:20:32.516Z,80.59
2023-01-20T02:23:15.777Z,80.48
2023-01-20T02:25:57.422Z,80.29
2023-01-20T02:28:45.697Z,80.53
2023-01-20T02:31:49.566Z,80.45
2023-01-20T02:34:40.201Z,80.63
2023-01-20T02:37:12.485Z,80.66
2023-01-20T02:39:42.054Z,80.39
2023-01-20T02:42:19.412Z,80.23
2023-01-20T02:44:56.035Z,80.27
2023-01-20T02:47:51.531Z,79.80
2023-01-20T02:50:41.245Z,79.82
2023-01-20T02:53:08.712Z,79.40
2023-01-20T02:55:39.473Z,79.20
2023-01-20T02:58:14.916Z,79.36
2023-01-20T03:00:46.445Z,79.11
2023-01-20T03:03:17.599Z,78.85
2023-01-20T03:05:49.545Z,78.89
2023-01-20T03:08:17.027Z,78.89
2023-01-20T03:10:45.685Z,78.40
2023-01-20T03:13:22.137Z,78.44
2023-01-20T03:16:00.779Z,78.44
2023-01-20T03:18:29.567Z,78.71
2023-01-20T03:20:57.720Z,78.85
2023-01-20T03:23:25.905Z,78.98
2023-01-20T03:25:52.509Z,78.98
2023-01-20T03:28:19.032Z,79.01
2023-01-20T03:30:45.589Z,79.04
2023-01-20T03:33:12.709Z,79.00
2023-01-20T03:35:39.833Z,79.37
2023-01-20T03:38:06.642Z,79.42
2023-01-20T03:40:42.072Z,79.52
2023-01-20T03:43:27.344Z,79.57
2023-01-20T03:46:04.733Z,79.19
2023-01-20T03:48:50.654Z,79.28
2023-01-20T03:51:35.331Z,79.36
2023-01-20T03:54:07.196Z,79.00
2023-01-20T03:56:42.385Z,78.72
2023-01-20T03:59:11.479Z,78.60
2023-01-20T04:01:40.400Z,78.75
2023-01-20T04:04:11.472Z,78.62
2023-01-20T04:06:39.239Z,78.41
2023-01-20T04:09:08.877Z,78.34
2023-01-20T04:11:35.682Z,78.60
2023-01-20T04:14:02.695Z,78.45
2023-01-20T04:16:29.233Z,78.62
2023-01-20T04:18:55.855Z,79.06
2023-01-20T04:21:30.423Z,79.46
2023-01-20T04:24:06.709Z,79.43
2023-01-20T04:26:33.247Z,79.70
2023-01-20T04:28:59.828Z,79.88
2023-01-20T04:31:31.140Z,80.45
2023-01-20T04:33:58.048Z,79.90
2023-01-20T04:36:24.549Z,79.93
2023-01-20T04:38:51.026Z,79.98
2023-01-20T04:41:17.575Z,80.19
2023-01-20T04:43:45.296Z,79.88
2023-01-20T04:46:12.902Z,80.08
2023-01-20T04:48:39.416Z,79.65
2023-01-20T04:51:07.099Z,79.26
2023-01-20T04:53:33.980Z,79.50
2023-01-20T04:56:00.597Z,79.24
2023-01-20T04:58:27.271Z,78.99
2023-01-20T05:00:53.894Z,79.20
2023-01-20T05:03:20.480Z,79.19
2023-01-20T05:05:56.056Z,78.81
2023-01-20T05:08:22.662Z,78.55
2023-01-20T05:10:49.409Z,78.72
2023-01-20T05:13:16.072Z,78.79
2023-01-20T05:15:43.500Z,78.97
2023-01-20T05:18:10.039Z,78.54
2023-01-20T05:20:36.534Z,78.65
2023-01-20T05:23:03.152Z,78.59
2023-01-20T05:25:29.665Z,78.38
2023-01-20T05:27:56.135Z,78.61
2023-01-20T05:30:22.779Z,78.19
2023-01-20T05:32:50.333Z,78.29
2023-01-20T05:35:17.304Z,78.33
2023-01-20T05:37:44.336Z,78.81
2023-01-20T05:40:11.492Z,78.68
2023-01-20T05:42:38.085Z,78.58
2023-01-20T05:45:05.012Z,78.61
2023-01-20T05:47:31.528Z,78.70
2023-01-20T05:49:58.079Z,78.52
2023-01-20T05:52:24.632Z,78.56
2023-01-20T05:54:51.144Z,78.56
2023-01-20T05:57:18.402Z,78.87
2023-01-20T05:59:47.736Z,78.56
2023-01-20T06:02:18.858Z,78.73
2023-01-20T06:04:46.533Z,78.82
2023-01-20T06:07:13.699Z,78.77
2023-01-20T06:09:40.248Z,78.43
2023-01-20T06:12:06.876Z,78.29
2023-01-20T06:14:33.613Z,78.12
2023-01-20T06:17:00.241Z,78.56
2023-01-20T06:19:26.759Z,78.70
2023-01-20T06:21:53.748Z,78.50
2023-01-20T06:24:20.317Z,78.38
2023-01-20T06:26:46.840Z,78.26
2023-01-20T06:29:13.415Z,78.25
2023-01-20T06:31:40.012Z,78.31
2023-01-20T06:34:06.591Z,78.45
2023-01-20T06:36:33.138Z,78.40
2023-01-20T06:38:59.684Z,77.97
2023-01-20T06:41:26.381Z,77.87
2023-01-20T06:43:52.960Z,77.90
2023-01-20T06:46:19.517Z,77.27
2023-01-20T06:48:46.358Z,77.68
2023-01-20T06:51:17.975Z,77.52
2023-01-20T06:53:44.788Z,77.63
2023-01-20T06:56:15.450Z,77.74
2023-01-20T06:58:42.530Z,77.83
2023-01-20T07:01:14.971Z,77.04
2023-01-20T07:03:43.571Z,77.51
2023-01-20T07:06:32.136Z,77.62
2023-01-20T07:08:59.667Z,77.59
2023-01-20T07:11:27.009Z,77.22
2023-01-20T07:13:53.595Z,77.54
2023-01-20T07:16:20.283Z,77.89
2023-01-20T07:18:51.169Z,78.16
2023-01-20T07:21:18.341Z,77.79
2023-01-20T07:23:45.378Z,78.20
2023-01-20T07:26:14.368Z,78.39
2023-01-20T07:28:41.056Z,78.11
2023-01-20T07:31:19.229Z,78.32
2023-01-20T07:33:46.347Z,78.44
2023-01-20T07:36:13.846Z,78.17
2023-01-20T07:38:40.681Z,78.31
2023-01-20T07:41:10.877Z,78.09
2023-01-20T07:43:37.725Z,77.96
2023-01-20T07:46:05.122Z,78.13
2023-01-20T07:48:32.917Z,78.41
2023-01-20T07:51:05.783Z,78.25
2023-01-20T07:53:33.942Z,78.51
2023-01-20T07:56:04.633Z,78.36
2023-01-20T07:58:31.431Z,78.17
2023-01-20T08:00:58.002Z,78.27
2023-01-20T08:03:27.359Z,77.89
2023-01-20T08:05:54.063Z,77.79
2023-01-20T08:08:20.559Z,77.82
2023-01-20T08:10:53.780Z,77.65
2023-01-20T08:13:20.353Z,77.65
2023-01-20T08:15:46.808Z,77.67
2023-01-20T08:18:13.286Z,77.24
2023-01-20T08:20:40.731Z,77.27
2023-01-20T08:23:07.373Z,77.13
2023-01-20T08:25:33.889Z,77.20
2023-01-20T08:28:00.468Z,77.23
2023-01-20T08:30:27.143Z,76.90
2023-01-20T08:32:53.899Z,76.88
2023-01-20T08:35:20.956Z,76.83
2023-01-20T08:37:47.884Z,76.76
2023-01-20T08:40:14.635Z,76.60
2023-01-20T08:42:41.318Z,76.83
2023-01-20T08:45:09.195Z,77.30
2023-01-20T08:47:37.685Z,77.07
2023-01-20T08:50:06.392Z,77.22
2023-01-20T08:52:34.173Z,77.55
2023-01-20T08:55:00.817Z,77.56
2023-01-20T08:57:27.999Z,77.57
2023-01-20T08:59:54.727Z,78.02
2023-01-20T09:02:23.223Z,78.08
2023-01-20T09:04:50.227Z,77.99
2023-01-20T09:07:18.275Z,78.34
2023-01-20T09:09:44.799Z,78.07
2023-01-20T09:12:11.316Z,77.91
2023-01-20T09:14:38.009Z,77.82
2023-01-20T09:17:04.685Z,77.56
2023-01-20T09:19:31.338Z,77.60
2023-01-20T09:21:58.093Z,77.49
2023-01-20T09:24:24.666Z,77.50
2023-01-20T09:26:51.650Z,77.71
2023-01-20T09:29:19.737Z,77.44
2023-01-20T09:31:51.448Z,77.42
2023-01-20T09:34:21.878Z,77.46
2023-01-20T09:36:53.014Z,77.54
2023-01-20T09:39:38.119Z,77.35
2023-01-20T09:42:32.694Z,76.97
2023-01-20T09:45:22.827Z,76.99
2023-01-20T09:47:49.410Z,76.76
2023-01-20T09:50:37.467Z,76.57
2023-01-20T09:53:47.267Z,76.52
2023-01-20T09:56:18.017Z,76.00
2023-01-20T09:59:09.712Z,75.89
2023-01-20T10:01:52.304Z,75.59
2023-01-20T10:04:41.351Z,75.14
2023-01-20T10:07:13.344Z,75.49
2023-01-20T10:09:48.381Z,74.96
2023-01-20T10:12:19.253Z,75.25
2023-01-20T10:14:55.282Z,74.83
2023-01-20T10:17:31.099Z,75.10
2023-01-20T10:20:09.325Z,74.66
2023-01-20T10:22:41.271Z,74.65
2023-01-20T10:25:48.436Z,74.89
2023-01-20T10:28:17.103Z,74.46
2023-01-20T10:30:47.088Z,73.97
2023-01-20T10:33:22.936Z,73.79
2023-01-20T10:35:51.997Z,73.64
2023-01-20T10:38:30.212Z,73.24
2023-01-20T10:41:19.746Z,73.42
2023-01-20T10:43:47.693Z,74.00
2023-01-20T10:46:50.490Z,73.95
2023-01-20T10:49:30.309Z,73.97
2023-01-20T10:52:10.749Z,74.13
2023-01-20T10:54:46.426Z,73.35
2023-01-20T10:57:15.398Z,73.30
2023-01-20T10:59:49.532Z,72.91
2023-01-20T11:02:34.968Z,73.18
2023-01-20T11:05:19.393Z,72.50
2023-01-20T11:07:46.650Z,71.88
2023-01-20T11:10:25.201Z,71.82
2023-01-20T11:12:54.615Z,71.71
2023-01-20T11:15:22.594Z,71.50
2023-01-20T11:18:13.905Z,71.61
2023-01-20T11:20:52.528Z,71.29
2023-01-20T11:23:32.394Z,71.29
2023-01-20T11:26:10.579Z,71.63
2023-01-20T11:28:48.378Z,71.17
2023-01-20T11:31:15.892Z,70.81
2023-01-20T11:33:59.350Z,70.62
2023-01-20T11:36:27.707Z,70.42
2023-01-20T11:38:56.311Z,70.31
2023-01-20T11:41:30.872Z,70.08
2023-01-20T11:43:59.540Z,69.91
2023-01-20T11:46:34.444Z,69.99
2023-01-20T11:49:22.451Z,69.65
2023-01-20T11:51:54.121Z,69.89
2023-01-20T11:54:28.283Z,69.72
2023-01-20T11:57:00.247Z,69.69
2023-01-20T11:59:32.060Z,69.77
2023-01-20T12:02:09.252Z,69.55
2023-01-20T12:04:47.165Z,69.36
2023-01-20T12:07:28.867Z,69.20
2023-01-20T12:10:05.834Z,69.11
2023-01-20T12:12:45.616Z,68.82
2023-01-20T12:15:22.055Z,69.29
2023-01-20T12:18:00.835Z,69.13
2023-01-20T12:20:49.240Z,69.03
2023-01-20T12:23:35.634Z,69.00
2023-01-20T12:26:04.283Z,69.29
2023-01-20T12:28:39.054Z,69.17
2023-01-20T12:31:07.548Z,68.84
2023-01-20T12:33:37.448Z,69.27
2023-01-20T12:36:41.500Z,68.70
2023-01-20T12:39:14.627Z,68.64
2023-01-20T12:42:09.978Z,69.31
2023-01-20T12:44:45.575Z,68.54
2023-01-20T12:47:17.183Z,68.71
2023-01-20T12:50:15.477Z,68.32
2023-01-20T12:52:54.883Z,68.87
2023-01-20T12:55:23.383Z,68.37
2023-01-20T12:57:59.937Z,68.35
2023-01-20T13:00:38.611Z,68.42
2023-01-20T13:03:23.390Z,68.27
2023-01-20T13:06:14.104Z,68.52
2023-01-20T13:09:03.891Z,68.39
2023-01-20T13:11:48.916Z,67.71
2023-01-20T13:14:18.070Z,68.46
2023-01-20T13:16:47.549Z,68.26
2023-01-20T13:19:27.551Z,68.87
2023-01-20T13:22:07.420Z,68.26
2023-01-20T13:24:34.909Z,68.33
2023-01-20T13:27:01.773Z,68.18
2023-01-20T13:29:37.456Z,68.18
2023-01-20T13:32:05.861Z,68.52
2023-01-20T13:34:33.968Z,68.75
2023-01-20T13:37:03.615Z,68.40
2023-01-20T13:39:30.167Z,68.67
2023-01-20T13:41:56.855Z,68.90
2023-01-20T13:44:35.357Z,68.67
2023-01-20T13:47:02.927Z,68.13
2023-01-20T13:49:46.625Z,67.81
2023-01-20T13:52:13.457Z,68.08
2023-01-20T13:54:45.566Z,68.56
2023-01-20T13:57:26.114Z,68.92
2023-01-20T13:59:52.613Z,68.80
2023-01-20T14:02:26.431Z,68.85
2023-01-20T14:04:54.313Z,68.27
2023-01-20T14:07:29.943Z,68.37
2023-01-20T14:09:59.526Z,68.83
2023-01-20T14:12:26.491Z,68.57
2023-01-20T14:14:53.444Z,67.84
2023-01-20T14:17:22.082Z,68.37
2023-01-20T14:19:50.244Z,67.85
2023-01-20T14:22:30.001Z,68.11
2023-01-20T14:25:01.777Z,68.45
2023-01-20T14:27:35.353Z,68.75
2023-01-20T14:30:18.906Z,68.29
2023-01-20T14:32:45.930Z,68.29
2023-01-20T14:35:18.468Z,67.76
2023-01-20T14:37:50.104Z,68.23
2023-01-20T14:40:30.993Z,68.39
2023-01-20T14:43:18.373Z,68.09
2023-01-20T14:45:47.327Z,68.25
2023-01-20T14:48:28.324Z,68.36
2023-01-20T14:51:02.596Z,67.95
2023-01-20T14:53:29.177Z,68.32
2023-01-20T14:56:01.736Z,68.20
2023-01-20T14:58:30.630Z,67.96
2023-01-20T15:01:00.845Z,68.57
2023-01-20T15:03:28.860Z,68.54
2023-01-20T15:05:58.416Z,68.50
2023-01-20T15:08:27.085Z,68.01
2023-01-20T15:11:18.943Z,68.58
2023-01-20T15:13:51.555Z,68.03
2023-01-20T15:16:25.788Z,68.54
2023-01-20T15:19:17.390Z,68.77
2023-01-20T15:21:48.644Z,68.06
2023-01-20T15:24:19.219Z,68.80
2023-01-20T15:26:46.713Z,68.63
2023-01-20T15:29:39.652Z,68.15
2023-01-20T15:32:12.521Z,68.54
2023-01-20T15:34:39.111Z,68.76
2023-01-20T15:37:11.778Z,68.12
2023-01-20T15:39:38.316Z,68.59
2023-01-20T15:42:06.315Z,68.51
2023-01-20T15:44:32.806Z,68.55
2023-01-20T15:46:59.386Z,68.87
2023-01-20T15:49:25.971Z,68.71
2023-01-20T15:51:52.833Z,68.33
2023-01-20T15:54:19.300Z,68.86
2023-01-20T15:56:47.005Z,68.53
2023-01-20T15:59:15.408Z,68.83
2023-01-20T16:01:42.249Z,69.05
2023-01-20T16:04:10.231Z,69.36
2023-01-20T16:06:37.531Z,69.22
2023-01-20T16:09:16.413Z,68.96
2023-01-20T16:11:42.982Z,69.56
2023-01-20T16:14:09.422Z,69.83
2023-01-20T16:16:35.915Z,69.78
2023-01-20T16:19:02.585Z,69.71
2023-01-20T16:21:29.056Z,70.17
2023-01-20T16:23:55.535Z,70.11
2023-01-20T16:26:27.242Z,70.28
2023-01-20T16:28:55.783Z,70.30
2023-01-20T16:31:23.455Z,70.58
2023-01-20T16:33:50.224Z,71.08
2023-01-20T16:36:19.152Z,70.96
2023-01-20T16:38:45.969Z,71.24
2023-01-20T16:41:16.976Z,71.20
2023-01-20T16:43:43.561Z,71.36
2023-01-20T16:46:13.937Z,71.02
2023-01-20T16:48:40.582Z,71.17
2023-01-20T16:51:07.153Z,71.37
2023-01-20T16:53:34.110Z,71.58
2023-01-20T16:56:01.169Z,71.85
2023-01-20T16:58:27.768Z,71.90
2023-01-20T17:00:54.259Z,72.17
2023-01-20T17:03:20.941Z,72.37
2023-01-20T17:05:47.492Z,72.39
2023-01-20T17:08:14.009Z,72.17
2023-01-20T17:10:40.542Z,72.40
2023-01-20T17:13:07.071Z,72.71
2023-01-20T17:15:33.612Z,72.61
2023-01-20T17:18:00.367Z,72.53
2023-01-20T17:20:27.348Z,72.62
2023-01-20T17:22:56.887Z,72.81
2023-01-20T17:25:23.811Z,72.58
2023-01-20T17:27:50.330Z,72.71
2023-01-20T17:30:17.340Z,72.81
2023-01-20T17:32:48.328Z,73.12
2023-01-20T17:35:15.975Z,72.76
2023-01-20T17:37:42.463Z,72.54
2023-01-20T17:40:11.124Z,72.74
2023-01-20T17:42:37.804Z,72.90
2023-01-20T17:45:04.568Z,72.91
2023-01-20T17:47:31.623Z,73.01
2023-01-20T17:49:58.187Z,72.81
2023-01-20T17:52:24.861Z,73.30
2023-01-20T17:54:51.523Z,73.52
2023-01-20T17:57:18.076Z,73.61
2023-01-20T17:59:44.616Z,73.81
2023-01-20T18:02:11.914Z,73.57
2023-01-20T18:04:38.861Z,73.72
2023-01-20T18:07:05.419Z,73.60
2023-01-20T18:09:31.899Z,73.89
2023-01-20T18:11:58.440Z,74.13
2023-01-20T18:14:25.795Z,74.85
2023-01-20T18:16:54.434Z,74.79
2023-01-20T18:19:21.027Z,74.68
2023-01-20T18:21:47.567Z,74.54
2023-01-20T18:24:14.053Z,74.64
2023-01-20T18:26:42.684Z,74.31
2023-01-20T18:29:14.784Z,74.76
2023-01-20T18:31:41.885Z,74.89
2023-01-20T18:34:11.126Z,75.61
2023-01-20T18:36:40.555Z,76.33
2023-01-20T18:39:16.080Z,76.49
2023-01-20T18:41:43.263Z,76.56
2023-01-20T18:44:09.949Z,76.09
2023-01-20T18:46:36.776Z,76.44
2023-01-20T18:49:03.407Z,76.34
2023-01-20T18:51:30.304Z,76.43
2023-01-20T18:54:02.064Z,76.66
2023-01-20T18:56:29.182Z,76.65
2023-01-20T18:58:55.908Z,76.41
2023-01-20T19:01:28.836Z,76.34
2023-01-20T19:03:55.529Z,76.38
2023-01-20T19:06:24.191Z,76.47
2023-01-20T19:08:50.942Z,76.43
2023-01-20T19:11:19.619Z,76.32
2023-01-20T19:13:48.639Z,76.32
2023-01-20T19:16:15.314Z,76.45
2023-01-20T19:18:43.264Z,76.76
2023-01-20T19:21:12.489Z,77.05
2023-01-20T19:23:39.260Z,77.43
2023-01-20T19:26:10.911Z,78.07
2023-01-20T19:28:37.752Z,78.48
2023-01-20T19:31:12.471Z,78.56
2023-01-20T19:33:40.190Z,79.04
2023-01-20T19:36:10.319Z,79.07
2023-01-20T19:38:36.922Z,79.18
2023-01-20T19:41:06.478Z,80.00
2023-01-20T19:43:33.211Z,80.03
2023-01-20T19:46:08.367Z,80.42
2023-01-20T19:48:35.092Z,80.28
2023-01-20T19:51:10.972Z,81.14
2023-01-20T19:53:37.513Z,81.43
2023-01-20T19:56:12.622Z,81.47
2023-01-20T19:58:39.632Z,81.82
2023-01-20T20:01:16.791Z,82.04
2023-01-20T20:03:43.775Z,82.26
2023-01-20T20:06:28.937Z,82.14
2023-01-20T20:09:12.003Z,81.98
2023-01-20T20:11:38.610Z,81.85
2023-01-20T20:14:07.520Z,81.96
2023-01-20T20:16:35.595Z,82.13
2023-01-20T20:19:02.300Z,82.29
2023-01-20T20:21:28.779Z,82.11
2023-01-20T20:23:57.437Z,82.27
2023-01-20T20:26:26.688Z,82.15
2023-01-20T20:28:53.546Z,82.27
2023-01-20T20:31:20.178Z,82.26
2023-01-20T20:33:46.876Z,82.26
2023-01-20T20:36:13.475Z,82.10
2023-01-20T20:38:39.888Z,82.30
2023-01-20T20:41:10.743Z,82.03
2023-01-20T20:43:38.047Z,82.35
2023-01-20T20:46:06.083Z,82.13
2023-01-20T20:48:33.615Z,82.15
2023-01-20T20:51:07.538Z,81.95
2023-01-20T20:53:34.051Z,82.39
2023-01-20T20:56:03.970Z,82.08
2023-01-20T20:58:31.700Z,82.10
2023-01-20T21:01:01.009Z,82.17
2023-01-20T21:03:27.821Z,82.42
2023-01-20T21:05:54.269Z,82.61
2023-01-20T21:08:20.696Z,82.49
2023-01-20T21:10:47.334Z,83.03
2023-01-20T21:13:13.750Z,83.22
2023-01-20T21:15:40.181Z,83.19
2023-01-20T21:18:06.696Z,83.07
2023-01-20T21:20:33.534Z,83.26
2023-01-20T21:23:00.918Z,82.82
2023-01-20T21:25:27.733Z,83.25
2023-01-20T21:27:54.191Z,83.24
2023-01-20T21:30:20.636Z,83.21
2023-01-20T21:32:47.072Z,83.46
2023-01-20T21:35:13.506Z,83.35
2023-01-20T21:37:39.965Z,83.37
2023-01-20T21:40:06.883Z,83.35
2023-01-20T21:42:33.327Z,83.57
2023-01-20T21:44:59.745Z,83.26
2023-01-20T21:47:26.180Z,83.35
2023-01-20T21:50:11.291Z,83.32
2023-01-20T21:52:45.257Z,83.31
2023-01-20T21:55:15.869Z,83.47
2023-01-20T21:57:42.540Z,83.52
2023-01-20T22:00:10.823Z,83.57
2023-01-20T22:02:37.290Z,83.45
2023-01-20T22:05:03.860Z,83.35
2023-01-20T22:07:31.307Z,83.56
2023-01-20T22:09:58.311Z,83.48
2023-01-20T22:12:24.951Z,83.47
2023-01-20T22:14:51.364Z,83.56
2023-01-20T22:17:17.796Z,83.37
2023-01-20T22:19:44.212Z,83.22
2023-01-20T22:22:10.924Z,83.31
2023-01-20T22:24:37.672Z,82.88
2023-01-20T22:27:04.325Z,82.66
2023-01-20T22:29:31.322Z,82.61
2023-01-20T22:31:59.387Z,82.58
2023-01-20T22:34:26.214Z,82.50
2023-01-20T22:36:55.089Z,82.36
2023-01-20T22:39:21.496Z,82.10
2023-01-20T22:41:47.936Z,81.78
2023-01-20T22:44:14.394Z,81.58
2023-01-20T22:46:40.873Z,81.64
2023-01-20T22:49:07.339Z,81.18
2023-01-20T22:51:33.755Z,80.99
2023-01-20T22:54:01.253Z,80.97
2023-01-20T22:56:32.900Z,80.76
2023-01-20T22:59:00.211Z,80.03
2023-01-20T23:01:30.438Z,80.10
2023-01-20T23:03:58.671Z,79.92
2023-01-20T23:06:26.582Z,79.61
2023-01-20T23:08:53.188Z,79.60
2023-01-20T23:11:21.951Z,79.34
2023-01-20T23:13:48.494Z,79.26
2023-01-20T23:16:17.680Z,79.11
2023-01-20T23:18:45.303Z,78.99
2023-01-20T23:21:12.194Z,78.89
2023-01-20T23:23:38.921Z,78.94
2023-01-20T23:26:10.787Z,79.31
2023-01-20T23:28:37.233Z,79.64
2023-01-20T23:31:06.631Z,79.94
2023-01-20T23:33:33.529Z,80.56
2023-01-20T23:36:17.158Z,80.99
2023-01-20T23:38:44.602Z,81.22
2023-01-20T23:41:12.551Z,81.31
2023-01-20T23:43:39.030Z,81.10
2023-01-20T23:46:06.099Z,81.46
2023-01-20T23:48:33.163Z,81.02
2023-01-20T23:51:02.579Z,81.42
2023-01-20T23:53:31.087Z,81.52
2023-01-20T23:56:05.624Z,82.03
2023-01-20T23:58:32.159Z,81.98
